Terminal Aerodrome Forecast
Issued by NWS

Home | Current Version | Previous Version | Text Only | Print | Product List | Glossary On
Versions: 1 2 3 4 5 6 7 8 9 10 11 12
431
FTUS45 KVEF 240536
TAFBIH
TAF
KBIH 240536Z 2406/2506 31008KT P6SM SKC
     FM241700 VRB05KT P6SM SKC
     FM242100 16010G18KT P6SM SKC
     FM250500 32007KT P6SM SKC=

USA.gov is the U.S. government's official web portal to all federal, state and local government web resources and services.